sensor_id;sensor_type;location;lat;lon;timestamp;P1;durP1;ratioP1;P2;durP2;ratioP2
52126;SDS011;38120;53.176;6.614;2022-08-21T00:01:19;6.95;;;4.10;;
52126;SDS011;38120;53.176;6.614;2022-08-21T00:03:49;7.45;;;3.90;;
52126;SDS011;38120;53.176;6.614;2022-08-21T00:06:15;7.75;;;3.47;;
52126;SDS011;38120;53.176;6.614;2022-08-21T00:08:41;6.40;;;3.65;;
52126;SDS011;38120;53.176;6.614;2022-08-21T00:11:07;7.35;;;3.60;;
52126;SDS011;38120;53.176;6.614;2022-08-21T00:13:34;8.40;;;3.55;;
52126;SDS011;38120;53.176;6.614;2022-08-21T00:16:01;8.65;;;4.03;;
52126;SDS011;38120;53.176;6.614;2022-08-21T00:18:27;6.07;;;3.70;;
52126;SDS011;38120;53.176;6.614;2022-08-21T00:20:54;9.48;;;4.00;;
52126;SDS011;38120;53.176;6.614;2022-08-21T00:23:19;5.68;;;3.35;;
52126;SDS011;38120;53.176;6.614;2022-08-21T00:25:45;7.10;;;3.30;;
52126;SDS011;38120;53.176;6.614;2022-08-21T00:28:11;7.07;;;3.75;;
52126;SDS011;38120;53.176;6.614;2022-08-21T00:30:38;10.75;;;4.13;;
52126;SDS011;38120;53.176;6.614;2022-08-21T00:33:05;8.40;;;4.28;;
52126;SDS011;38120;53.176;6.614;2022-08-21T00:35:33;9.70;;;3.55;;
52126;SDS011;38120;53.176;6.614;2022-08-21T00:38:02;9.90;;;3.63;;
52126;SDS011;38120;53.176;6.614;2022-08-21T00:40:34;6.28;;;3.22;;
52126;SDS011;38120;53.176;6.614;2022-08-21T00:43:03;7.25;;;3.60;;
52126;SDS011;38120;53.176;6.614;2022-08-21T00:45:30;7.00;;;3.55;;
52126;SDS011;38120;53.176;6.614;2022-08-21T00:47:57;9.30;;;3.60;;
52126;SDS011;38120;53.176;6.614;2022-08-21T00:50:23;5.85;;;3.80;;
52126;SDS011;38120;53.176;6.614;2022-08-21T00:52:53;9.23;;;3.60;;
52126;SDS011;38120;53.176;6.614;2022-08-21T00:55:19;6.15;;;3.35;;
52126;SDS011;38120;53.176;6.614;2022-08-21T00:57:47;7.93;;;3.88;;
52126;SDS011;38120;53.176;6.614;2022-08-21T01:00:18;10.00;;;4.32;;
52126;SDS011;38120;53.176;6.614;2022-08-21T01:02:46;8.30;;;4.10;;
52126;SDS011;38120;53.176;6.614;2022-08-21T01:05:12;7.28;;;4.10;;
52126;SDS011;38120;53.176;6.614;2022-08-21T01:07:39;8.60;;;4.20;;
52126;SDS011;38120;53.176;6.614;2022-08-21T01:10:06;6.50;;;4.10;;
52126;SDS011;38120;53.176;6.614;2022-08-21T01:14:59;9.15;;;4.40;;
52126;SDS011;38120;53.176;6.614;2022-08-21T01:17:27;7.78;;;3.88;;
52126;SDS011;38120;53.176;6.614;2022-08-21T01:19:53;9.02;;;4.25;;
52126;SDS011;38120;53.176;6.614;2022-08-21T01:22:22;7.10;;;4.13;;
52126;SDS011;38120;53.176;6.614;2022-08-21T01:24:48;9.57;;;4.35;;
52126;SDS011;38120;53.176;6.614;2022-08-21T01:27:15;11.43;;;4.93;;
52126;SDS011;38120;53.176;6.614;2022-08-21T01:29:48;6.95;;;4.18;;
52126;SDS011;38120;53.176;6.614;2022-08-21T01:32:19;8.55;;;4.45;;
52126;SDS011;38120;53.176;6.614;2022-08-21T01:34:46;9.73;;;4.60;;
52126;SDS011;38120;53.176;6.614;2022-08-21T01:37:13;9.13;;;4.32;;
52126;SDS011;38120;53.176;6.614;2022-08-21T01:39:40;10.98;;;5.00;;
52126;SDS011;38120;53.176;6.614;2022-08-21T01:42:07;7.45;;;4.18;;
52126;SDS011;38120;53.176;6.614;2022-08-21T01:44:32;10.57;;;4.47;;
52126;SDS011;38120;53.176;6.614;2022-08-21T01:46:59;10.27;;;4.43;;
52126;SDS011;38120;53.176;6.614;2022-08-21T01:49:29;8.52;;;5.68;;
52126;SDS011;38120;53.176;6.614;2022-08-21T01:51:54;10.40;;;4.93;;
52126;SDS011;38120;53.176;6.614;2022-08-21T01:54:20;8.77;;;4.95;;
52126;SDS011;38120;53.176;6.614;2022-08-21T01:56:47;11.35;;;4.72;;
52126;SDS011;38120;53.176;6.614;2022-08-21T01:59:16;11.38;;;5.20;;
52126;SDS011;38120;53.176;6.614;2022-08-21T02:01:43;10.93;;;5.47;;
52126;SDS011;38120;53.176;6.614;2022-08-21T02:04:09;10.68;;;4.85;;
52126;SDS011;38120;53.176;6.614;2022-08-21T02:06:36;10.27;;;5.10;;
52126;SDS011;38120;53.176;6.614;2022-08-21T02:09:03;9.05;;;5.28;;
52126;SDS011;38120;53.176;6.614;2022-08-21T02:11:30;9.45;;;6.13;;
52126;SDS011;38120;53.176;6.614;2022-08-21T02:13:59;10.15;;;5.07;;
52126;SDS011;38120;53.176;6.614;2022-08-21T02:16:25;10.70;;;5.32;;
52126;SDS011;38120;53.176;6.614;2022-08-21T02:18:51;11.82;;;6.43;;
52126;SDS011;38120;53.176;6.614;2022-08-21T02:21:19;9.63;;;5.93;;
52126;SDS011;38120;53.176;6.614;2022-08-21T02:23:45;13.80;;;5.32;;
52126;SDS011;38120;53.176;6.614;2022-08-21T02:26:11;12.23;;;6.32;;
52126;SDS011;38120;53.176;6.614;2022-08-21T02:28:40;10.32;;;6.05;;
52126;SDS011;38120;53.176;6.614;2022-08-21T02:31:07;9.82;;;6.15;;
52126;SDS011;38120;53.176;6.614;2022-08-21T02:33:33;9.65;;;6.43;;
52126;SDS011;38120;53.176;6.614;2022-08-21T02:35:59;12.25;;;6.80;;
52126;SDS011;38120;53.176;6.614;2022-08-21T02:38:26;10.13;;;6.13;;
52126;SDS011;38120;53.176;6.614;2022-08-21T02:40:54;13.30;;;6.63;;
52126;SDS011;38120;53.176;6.614;2022-08-21T02:43:22;10.38;;;6.70;;
52126;SDS011;38120;53.176;6.614;2022-08-21T02:45:49;11.50;;;6.78;;
52126;SDS011;38120;53.176;6.614;2022-08-21T02:48:17;11.43;;;6.80;;
52126;SDS011;38120;53.176;6.614;2022-08-21T02:50:46;11.90;;;7.22;;
52126;SDS011;38120;53.176;6.614;2022-08-21T02:53:14;8.73;;;6.10;;
52126;SDS011;38120;53.176;6.614;2022-08-21T02:55:41;11.23;;;7.28;;
52126;SDS011;38120;53.176;6.614;2022-08-21T02:58:13;11.52;;;6.15;;
52126;SDS011;38120;53.176;6.614;2022-08-21T03:00:39;10.90;;;6.47;;
52126;SDS011;38120;53.176;6.614;2022-08-21T03:03:05;10.82;;;6.82;;
52126;SDS011;38120;53.176;6.614;2022-08-21T03:05:32;16.63;;;7.05;;
52126;SDS011;38120;53.176;6.614;2022-08-21T03:07:59;12.57;;;6.57;;
52126;SDS011;38120;53.176;6.614;2022-08-21T03:10:27;12.50;;;6.88;;
52126;SDS011;38120;53.176;6.614;2022-08-21T03:12:54;9.98;;;6.32;;
52126;SDS011;38120;53.176;6.614;2022-08-21T03:15:20;13.88;;;7.90;;
52126;SDS011;38120;53.176;6.614;2022-08-21T03:17:51;11.82;;;6.85;;
52126;SDS011;38120;53.176;6.614;2022-08-21T03:20:19;12.35;;;7.03;;
52126;SDS011;38120;53.176;6.614;2022-08-21T03:22:49;11.13;;;6.82;;
52126;SDS011;38120;53.176;6.614;2022-08-21T03:25:15;12.65;;;6.93;;
52126;SDS011;38120;53.176;6.614;2022-08-21T03:27:44;10.90;;;6.60;;
52126;SDS011;38120;53.176;6.614;2022-08-21T03:30:10;13.43;;;7.57;;
52126;SDS011;38120;53.176;6.614;2022-08-21T03:35:02;14.98;;;8.75;;
52126;SDS011;38120;53.176;6.614;2022-08-21T03:37:29;12.23;;;6.85;;
52126;SDS011;38120;53.176;6.614;2022-08-21T03:39:55;12.68;;;7.10;;
52126;SDS011;38120;53.176;6.614;2022-08-21T03:42:21;10.88;;;7.50;;
52126;SDS011;38120;53.176;6.614;2022-08-21T03:44:46;11.48;;;7.30;;
52126;SDS011;38120;53.176;6.614;2022-08-21T03:47:12;12.63;;;7.53;;
52126;SDS011;38120;53.176;6.614;2022-08-21T03:49:38;13.15;;;7.47;;
52126;SDS011;38120;53.176;6.614;2022-08-21T03:52:04;11.98;;;6.88;;
52126;SDS011;38120;53.176;6.614;2022-08-21T03:54:29;12.77;;;7.30;;
52126;SDS011;38120;53.176;6.614;2022-08-21T03:57:04;15.80;;;7.43;;
52126;SDS011;38120;53.176;6.614;2022-08-21T03:59:30;10.88;;;6.93;;
52126;SDS011;38120;53.176;6.614;2022-08-21T04:01:57;12.07;;;7.53;;
52126;SDS011;38120;53.176;6.614;2022-08-21T04:04:26;10.88;;;7.00;;
52126;SDS011;38120;53.176;6.614;2022-08-21T04:06:53;15.00;;;7.22;;
52126;SDS011;38120;53.176;6.614;2022-08-21T04:11:48;12.50;;;7.05;;
52126;SDS011;38120;53.176;6.614;2022-08-21T04:14:14;10.27;;;7.13;;
52126;SDS011;38120;53.176;6.614;2022-08-21T04:16:41;12.00;;;6.97;;
52126;SDS011;38120;53.176;6.614;2022-08-21T04:19:07;10.55;;;7.18;;
52126;SDS011;38120;53.176;6.614;2022-08-21T04:21:33;15.70;;;7.32;;
52126;SDS011;38120;53.176;6.614;2022-08-21T04:24:03;13.60;;;6.95;;
52126;SDS011;38120;53.176;6.614;2022-08-21T04:26:29;12.18;;;7.03;;
52126;SDS011;38120;53.176;6.614;2022-08-21T04:31:22;10.88;;;7.13;;
52126;SDS011;38120;53.176;6.614;2022-08-21T04:33:49;10.35;;;6.78;;
52126;SDS011;38120;53.176;6.614;2022-08-21T04:36:16;11.75;;;7.07;;
52126;SDS011;38120;53.176;6.614;2022-08-21T04:38:45;10.27;;;7.03;;
52126;SDS011;38120;53.176;6.614;2022-08-21T04:41:11;12.40;;;7.53;;
52126;SDS011;38120;53.176;6.614;2022-08-21T04:43:37;8.90;;;6.72;;
52126;SDS011;38120;53.176;6.614;2022-08-21T04:46:04;12.88;;;7.00;;
52126;SDS011;38120;53.176;6.614;2022-08-21T04:51:00;10.13;;;7.13;;
52126;SDS011;38120;53.176;6.614;2022-08-21T04:56:00;9.98;;;6.20;;
52126;SDS011;38120;53.176;6.614;2022-08-21T04:58:33;13.50;;;6.68;;
52126;SDS011;38120;53.176;6.614;2022-08-21T05:01:00;10.65;;;6.57;;
52126;SDS011;38120;53.176;6.614;2022-08-21T05:03:27;9.05;;;5.90;;
52126;SDS011;38120;53.176;6.614;2022-08-21T05:08:19;12.35;;;6.43;;
52126;SDS011;38120;53.176;6.614;2022-08-21T05:10:48;11.40;;;6.50;;
52126;SDS011;38120;53.176;6.614;2022-08-21T05:13:14;8.68;;;5.18;;
52126;SDS011;38120;53.176;6.614;2022-08-21T05:15:41;14.43;;;7.30;;
52126;SDS011;38120;53.176;6.614;2022-08-21T05:18:07;8.23;;;5.63;;
52126;SDS011;38120;53.176;6.614;2022-08-21T05:20:33;11.20;;;6.25;;
52126;SDS011;38120;53.176;6.614;2022-08-21T05:23:00;9.75;;;6.38;;
52126;SDS011;38120;53.176;6.614;2022-08-21T05:25:32;9.23;;;5.55;;
52126;SDS011;38120;53.176;6.614;2022-08-21T05:27:57;11.18;;;6.15;;
52126;SDS011;38120;53.176;6.614;2022-08-21T05:30:23;12.80;;;5.97;;
52126;SDS011;38120;53.176;6.614;2022-08-21T05:32:49;13.40;;;6.32;;
52126;SDS011;38120;53.176;6.614;2022-08-21T05:35:21;9.32;;;6.25;;
52126;SDS011;38120;53.176;6.614;2022-08-21T05:37:47;10.05;;;6.40;;
52126;SDS011;38120;53.176;6.614;2022-08-21T05:40:12;15.65;;;6.78;;
52126;SDS011;38120;53.176;6.614;2022-08-21T05:45:04;11.73;;;5.97;;
52126;SDS011;38120;53.176;6.614;2022-08-21T05:47:30;8.90;;;5.68;;
52126;SDS011;38120;53.176;6.614;2022-08-21T05:49:56;17.38;;;6.03;;
52126;SDS011;38120;53.176;6.614;2022-08-21T05:52:22;9.25;;;5.35;;
52126;SDS011;38120;53.176;6.614;2022-08-21T05:54:48;12.02;;;5.90;;
52126;SDS011;38120;53.176;6.614;2022-08-21T05:57:14;10.50;;;5.82;;
52126;SDS011;38120;53.176;6.614;2022-08-21T05:59:40;11.23;;;6.03;;
52126;SDS011;38120;53.176;6.614;2022-08-21T06:02:05;10.68;;;5.63;;
52126;SDS011;38120;53.176;6.614;2022-08-21T06:04:36;11.48;;;5.60;;
52126;SDS011;38120;53.176;6.614;2022-08-21T06:07:02;14.27;;;6.10;;
52126;SDS011;38120;53.176;6.614;2022-08-21T06:09:28;12.77;;;5.80;;
52126;SDS011;38120;53.176;6.614;2022-08-21T06:11:54;12.68;;;4.53;;
52126;SDS011;38120;53.176;6.614;2022-08-21T06:14:19;14.38;;;5.75;;
52126;SDS011;38120;53.176;6.614;2022-08-21T06:16:45;12.18;;;5.53;;
52126;SDS011;38120;53.176;6.614;2022-08-21T06:19:11;12.32;;;5.95;;
52126;SDS011;38120;53.176;6.614;2022-08-21T06:24:03;9.73;;;5.40;;
52126;SDS011;38120;53.176;6.614;2022-08-21T06:26:29;14.45;;;6.18;;
52126;SDS011;38120;53.176;6.614;2022-08-21T06:31:22;9.98;;;4.97;;
52126;SDS011;38120;53.176;6.614;2022-08-21T06:33:50;11.35;;;5.45;;
52126;SDS011;38120;53.176;6.614;2022-08-21T06:38:42;9.05;;;4.72;;
52126;SDS011;38120;53.176;6.614;2022-08-21T06:41:08;10.98;;;5.43;;
52126;SDS011;38120;53.176;6.614;2022-08-21T06:43:34;10.18;;;4.68;;
52126;SDS011;38120;53.176;6.614;2022-08-21T06:46:00;9.40;;;4.72;;
52126;SDS011;38120;53.176;6.614;2022-08-21T06:48:26;9.77;;;4.85;;
52126;SDS011;38120;53.176;6.614;2022-08-21T06:50:51;12.45;;;5.32;;
52126;SDS011;38120;53.176;6.614;2022-08-21T06:53:19;13.35;;;4.57;;
52126;SDS011;38120;53.176;6.614;2022-08-21T06:55:46;9.77;;;4.78;;
52126;SDS011;38120;53.176;6.614;2022-08-21T06:58:12;9.00;;;4.25;;
52126;SDS011;38120;53.176;6.614;2022-08-21T07:00:39;9.55;;;3.78;;
52126;SDS011;38120;53.176;6.614;2022-08-21T07:03:07;11.20;;;4.80;;
52126;SDS011;38120;53.176;6.614;2022-08-21T07:05:40;7.38;;;3.67;;
52126;SDS011;38120;53.176;6.614;2022-08-21T07:08:06;12.68;;;3.80;;
52126;SDS011;38120;53.176;6.614;2022-08-21T07:10:31;13.65;;;3.75;;
52126;SDS011;38120;53.176;6.614;2022-08-21T07:12:57;12.45;;;4.05;;
52126;SDS011;38120;53.176;6.614;2022-08-21T07:15:23;8.75;;;4.25;;
52126;SDS011;38120;53.176;6.614;2022-08-21T07:17:48;9.70;;;3.70;;
52126;SDS011;38120;53.176;6.614;2022-08-21T07:20:14;9.18;;;3.80;;
52126;SDS011;38120;53.176;6.614;2022-08-21T07:22:40;8.13;;;4.10;;
52126;SDS011;38120;53.176;6.614;2022-08-21T07:25:06;9.85;;;3.88;;
52126;SDS011;38120;53.176;6.614;2022-08-21T07:27:32;10.45;;;3.15;;
52126;SDS011;38120;53.176;6.614;2022-08-21T07:29:58;8.10;;;3.08;;
52126;SDS011;38120;53.176;6.614;2022-08-21T07:32:24;7.97;;;2.90;;
52126;SDS011;38120;53.176;6.614;2022-08-21T07:34:50;8.13;;;3.38;;
52126;SDS011;38120;53.176;6.614;2022-08-21T07:37:16;11.15;;;3.28;;
52126;SDS011;38120;53.176;6.614;2022-08-21T07:39:41;9.50;;;2.67;;
52126;SDS011;38120;53.176;6.614;2022-08-21T07:42:07;8.32;;;2.88;;
52126;SDS011;38120;53.176;6.614;2022-08-21T07:44:34;8.55;;;3.38;;
52126;SDS011;38120;53.176;6.614;2022-08-21T07:47:00;7.35;;;2.78;;
52126;SDS011;38120;53.176;6.614;2022-08-21T07:49:27;8.27;;;2.80;;
52126;SDS011;38120;53.176;6.614;2022-08-21T07:51:53;8.93;;;3.25;;
52126;SDS011;38120;53.176;6.614;2022-08-21T07:54:19;8.48;;;2.67;;
52126;SDS011;38120;53.176;6.614;2022-08-21T07:56:45;10.80;;;3.83;;
52126;SDS011;38120;53.176;6.614;2022-08-21T07:59:11;7.50;;;3.42;;
52126;SDS011;38120;53.176;6.614;2022-08-21T08:01:37;7.15;;;2.78;;
52126;SDS011;38120;53.176;6.614;2022-08-21T08:04:02;8.65;;;3.20;;
52126;SDS011;38120;53.176;6.614;2022-08-21T08:06:29;7.63;;;3.03;;
52126;SDS011;38120;53.176;6.614;2022-08-21T08:08:55;6.65;;;2.80;;
52126;SDS011;38120;53.176;6.614;2022-08-21T08:11:21;13.82;;;3.15;;
52126;SDS011;38120;53.176;6.614;2022-08-21T08:16:15;7.93;;;2.72;;
52126;SDS011;38120;53.176;6.614;2022-08-21T08:18:40;5.70;;;2.25;;
52126;SDS011;38120;53.176;6.614;2022-08-21T08:23:33;7.93;;;2.50;;
52126;SDS011;38120;53.176;6.614;2022-08-21T08:26:00;11.25;;;2.70;;
52126;SDS011;38120;53.176;6.614;2022-08-21T08:28:27;6.72;;;2.47;;
52126;SDS011;38120;53.176;6.614;2022-08-21T08:30:53;7.43;;;2.78;;
52126;SDS011;38120;53.176;6.614;2022-08-21T08:33:20;8.77;;;2.83;;
52126;SDS011;38120;53.176;6.614;2022-08-21T08:35:49;7.38;;;2.40;;
52126;SDS011;38120;53.176;6.614;2022-08-21T08:38:19;10.85;;;2.60;;
52126;SDS011;38120;53.176;6.614;2022-08-21T08:43:25;8.35;;;2.50;;
52126;SDS011;38120;53.176;6.614;2022-08-21T08:45:51;8.73;;;2.78;;
52126;SDS011;38120;53.176;6.614;2022-08-21T08:48:55;9.55;;;2.53;;
52126;SDS011;38120;53.176;6.614;2022-08-21T08:51:22;9.52;;;2.45;;
52126;SDS011;38120;53.176;6.614;2022-08-21T08:53:54;5.25;;;2.45;;
52126;SDS011;38120;53.176;6.614;2022-08-21T08:56:34;6.78;;;2.75;;
52126;SDS011;38120;53.176;6.614;2022-08-21T08:59:07;8.52;;;2.70;;
52126;SDS011;38120;53.176;6.614;2022-08-21T09:01:42;11.88;;;2.80;;
52126;SDS011;38120;53.176;6.614;2022-08-21T09:04:09;8.38;;;2.70;;
52126;SDS011;38120;53.176;6.614;2022-08-21T09:14:14;11.95;;;4.55;;
52126;SDS011;38120;53.176;6.614;2022-08-21T09:16:56;13.77;;;3.88;;
52126;SDS011;38120;53.176;6.614;2022-08-21T09:25:25;12.18;;;3.45;;
52126;SDS011;38120;53.176;6.614;2022-08-21T09:28:09;11.57;;;4.00;;
52126;SDS011;38120;53.176;6.614;2022-08-21T09:30:39;9.98;;;3.10;;
52126;SDS011;38120;53.176;6.614;2022-08-21T09:33:06;10.95;;;3.65;;
52126;SDS011;38120;53.176;6.614;2022-08-21T09:38:04;10.05;;;3.15;;
52126;SDS011;38120;53.176;6.614;2022-08-21T09:40:36;7.78;;;3.15;;
52126;SDS011;38120;53.176;6.614;2022-08-21T09:43:04;14.00;;;3.83;;
52126;SDS011;38120;53.176;6.614;2022-08-21T09:45:40;9.88;;;3.17;;
52126;SDS011;38120;53.176;6.614;2022-08-21T09:48:23;8.60;;;3.05;;
52126;SDS011;38120;53.176;6.614;2022-08-21T09:50:50;5.72;;;2.22;;
52126;SDS011;38120;53.176;6.614;2022-08-21T09:53:25;10.50;;;3.90;;
52126;SDS011;38120;53.176;6.614;2022-08-21T09:58:39;6.97;;;2.80;;
52126;SDS011;38120;53.176;6.614;2022-08-21T10:01:06;6.22;;;2.53;;
52126;SDS011;38120;53.176;6.614;2022-08-21T10:03:49;12.15;;;3.78;;
52126;SDS011;38120;53.176;6.614;2022-08-21T10:06:27;7.05;;;2.72;;
52126;SDS011;38120;53.176;6.614;2022-08-21T10:11:50;11.32;;;3.22;;
52126;SDS011;38120;53.176;6.614;2022-08-21T10:14:46;8.88;;;2.78;;
52126;SDS011;38120;53.176;6.614;2022-08-21T10:17:37;8.38;;;2.63;;
52126;SDS011;38120;53.176;6.614;2022-08-21T10:20:30;9.65;;;3.15;;
52126;SDS011;38120;53.176;6.614;2022-08-21T10:28:48;8.35;;;2.75;;
52126;SDS011;38120;53.176;6.614;2022-08-21T10:40:12;9.50;;;2.67;;
52126;SDS011;38120;53.176;6.614;2022-08-21T10:43:49;5.38;;;2.10;;
52126;SDS011;38120;53.176;6.614;2022-08-21T10:48:28;9.70;;;2.50;;
52126;SDS011;38120;53.176;6.614;2022-08-21T10:56:31;7.32;;;2.80;;
52126;SDS011;38120;53.176;6.614;2022-08-21T11:01:54;6.75;;;2.67;;
52126;SDS011;38120;53.176;6.614;2022-08-21T11:04:26;10.38;;;3.10;;
52126;SDS011;38120;53.176;6.614;2022-08-21T11:06:58;7.60;;;2.33;;
52126;SDS011;38120;53.176;6.614;2022-08-21T11:09:28;10.70;;;3.25;;
52126;SDS011;38120;53.176;6.614;2022-08-21T11:17:52;7.22;;;3.35;;
52126;SDS011;38120;53.176;6.614;2022-08-21T11:20:29;7.20;;;3.13;;
52126;SDS011;38120;53.176;6.614;2022-08-21T11:23:07;9.82;;;3.15;;
52126;SDS011;38120;53.176;6.614;2022-08-21T11:25:53;17.98;;;12.13;;
52126;SDS011;38120;53.176;6.614;2022-08-21T11:28:26;8.30;;;3.55;;
52126;SDS011;38120;53.176;6.614;2022-08-21T11:38:41;6.00;;;2.78;;
52126;SDS011;38120;53.176;6.614;2022-08-21T11:44:15;10.02;;;3.63;;
52126;SDS011;38120;53.176;6.614;2022-08-21T11:46:53;10.35;;;3.83;;
52126;SDS011;38120;53.176;6.614;2022-08-21T11:54:42;9.70;;;3.90;;
52126;SDS011;38120;53.176;6.614;2022-08-21T12:02:18;11.38;;;3.38;;
52126;SDS011;38120;53.176;6.614;2022-08-21T12:04:49;16.13;;;3.53;;
52126;SDS011;38120;53.176;6.614;2022-08-21T12:07:40;8.23;;;3.25;;
52126;SDS011;38120;53.176;6.614;2022-08-21T12:10:10;6.45;;;2.95;;
52126;SDS011;38120;53.176;6.614;2022-08-21T12:12:39;10.05;;;3.40;;
52126;SDS011;38120;53.176;6.614;2022-08-21T12:20:41;9.70;;;3.00;;
52126;SDS011;38120;53.176;6.614;2022-08-21T12:25:39;9.48;;;2.60;;
52126;SDS011;38120;53.176;6.614;2022-08-21T12:28:09;13.02;;;3.53;;
52126;SDS011;38120;53.176;6.614;2022-08-21T12:30:42;8.35;;;2.72;;
52126;SDS011;38120;53.176;6.614;2022-08-21T12:33:21;7.35;;;2.60;;
52126;SDS011;38120;53.176;6.614;2022-08-21T12:36:06;10.95;;;2.95;;
52126;SDS011;38120;53.176;6.614;2022-08-21T12:38:42;8.25;;;2.58;;
52126;SDS011;38120;53.176;6.614;2022-08-21T12:41:17;7.68;;;3.53;;
52126;SDS011;38120;53.176;6.614;2022-08-21T12:43:48;9.18;;;2.85;;
52126;SDS011;38120;53.176;6.614;2022-08-21T12:46:22;7.03;;;2.40;;
52126;SDS011;38120;53.176;6.614;2022-08-21T12:49:23;9.18;;;3.17;;
52126;SDS011;38120;53.176;6.614;2022-08-21T12:54:29;7.22;;;2.50;;
52126;SDS011;38120;53.176;6.614;2022-08-21T12:57:00;13.15;;;2.92;;
52126;SDS011;38120;53.176;6.614;2022-08-21T12:59:28;8.95;;;2.88;;
52126;SDS011;38120;53.176;6.614;2022-08-21T13:01:55;9.30;;;2.63;;
52126;SDS011;38120;53.176;6.614;2022-08-21T13:04:33;7.13;;;1.80;;
52126;SDS011;38120;53.176;6.614;2022-08-21T13:07:09;9.27;;;2.50;;
52126;SDS011;38120;53.176;6.614;2022-08-21T13:09:47;11.80;;;2.88;;
52126;SDS011;38120;53.176;6.614;2022-08-21T13:12:16;9.35;;;2.42;;
52126;SDS011;38120;53.176;6.614;2022-08-21T13:14:44;7.13;;;2.45;;
52126;SDS011;38120;53.176;6.614;2022-08-21T13:17:18;8.13;;;2.25;;
52126;SDS011;38120;53.176;6.614;2022-08-21T13:19:59;4.25;;;1.73;;
52126;SDS011;38120;53.176;6.614;2022-08-21T13:22:28;7.55;;;2.42;;
52126;SDS011;38120;53.176;6.614;2022-08-21T13:24:55;9.60;;;2.60;;
52126;SDS011;38120;53.176;6.614;2022-08-21T13:27:25;7.78;;;2.17;;
52126;SDS011;38120;53.176;6.614;2022-08-21T13:30:07;7.05;;;2.55;;
52126;SDS011;38120;53.176;6.614;2022-08-21T13:32:37;8.32;;;2.03;;
52126;SDS011;38120;53.176;6.614;2022-08-21T13:35:19;7.35;;;2.20;;
52126;SDS011;38120;53.176;6.614;2022-08-21T13:37:50;5.45;;;1.50;;
52126;SDS011;38120;53.176;6.614;2022-08-21T13:40:23;7.75;;;2.47;;
52126;SDS011;38120;53.176;6.614;2022-08-21T13:42:52;5.40;;;2.07;;
52126;SDS011;38120;53.176;6.614;2022-08-21T13:45:24;8.93;;;2.20;;
52126;SDS011;38120;53.176;6.614;2022-08-21T13:47:56;7.28;;;2.22;;
52126;SDS011;38120;53.176;6.614;2022-08-21T13:50:24;9.10;;;2.38;;
52126;SDS011;38120;53.176;6.614;2022-08-21T13:53:20;5.85;;;2.00;;
52126;SDS011;38120;53.176;6.614;2022-08-21T13:55:46;5.57;;;1.90;;
52126;SDS011;38120;53.176;6.614;2022-08-21T13:58:12;6.10;;;2.00;;
52126;SDS011;38120;53.176;6.614;2022-08-21T14:00:50;6.13;;;2.08;;
52126;SDS011;38120;53.176;6.614;2022-08-21T14:03:29;5.85;;;2.33;;
52126;SDS011;38120;53.176;6.614;2022-08-21T14:06:10;5.53;;;2.08;;
52126;SDS011;38120;53.176;6.614;2022-08-21T14:08:41;7.07;;;2.42;;
52126;SDS011;38120;53.176;6.614;2022-08-21T14:11:11;6.45;;;1.77;;
52126;SDS011;38120;53.176;6.614;2022-08-21T14:18:52;6.43;;;2.00;;
52126;SDS011;38120;53.176;6.614;2022-08-21T14:21:36;6.00;;;1.90;;
52126;SDS011;38120;53.176;6.614;2022-08-21T14:24:10;6.55;;;2.63;;
52126;SDS011;38120;53.176;6.614;2022-08-21T14:26:54;7.40;;;2.50;;
52126;SDS011;38120;53.176;6.614;2022-08-21T14:29:39;6.22;;;2.10;;
52126;SDS011;38120;53.176;6.614;2022-08-21T14:32:26;8.88;;;1.85;;
52126;SDS011;38120;53.176;6.614;2022-08-21T14:34:55;7.15;;;2.08;;
52126;SDS011;38120;53.176;6.614;2022-08-21T14:37:22;8.98;;;2.20;;
52126;SDS011;38120;53.176;6.614;2022-08-21T14:39:48;5.72;;;2.28;;
52126;SDS011;38120;53.176;6.614;2022-08-21T14:44:40;5.15;;;1.83;;
52126;SDS011;38120;53.176;6.614;2022-08-21T14:47:06;6.10;;;1.83;;
52126;SDS011;38120;53.176;6.614;2022-08-21T14:49:33;8.20;;;2.25;;
52126;SDS011;38120;53.176;6.614;2022-08-21T14:51:59;7.22;;;1.73;;
52126;SDS011;38120;53.176;6.614;2022-08-21T14:54:28;5.50;;;2.05;;
52126;SDS011;38120;53.176;6.614;2022-08-21T14:56:56;8.15;;;2.20;;
52126;SDS011;38120;53.176;6.614;2022-08-21T14:59:23;4.05;;;1.80;;
52126;SDS011;38120;53.176;6.614;2022-08-21T15:01:50;6.32;;;2.28;;
52126;SDS011;38120;53.176;6.614;2022-08-21T15:04:17;8.63;;;2.05;;
52126;SDS011;38120;53.176;6.614;2022-08-21T15:06:43;10.18;;;2.00;;
52126;SDS011;38120;53.176;6.614;2022-08-21T15:09:09;6.70;;;2.13;;
52126;SDS011;38120;53.176;6.614;2022-08-21T15:11:34;6.72;;;1.90;;
52126;SDS011;38120;53.176;6.614;2022-08-21T15:14:02;6.10;;;2.00;;
52126;SDS011;38120;53.176;6.614;2022-08-21T15:16:29;8.82;;;1.83;;
52126;SDS011;38120;53.176;6.614;2022-08-21T15:18:58;5.72;;;1.70;;
52126;SDS011;38120;53.176;6.614;2022-08-21T15:21:24;5.95;;;1.98;;
52126;SDS011;38120;53.176;6.614;2022-08-21T15:26:15;7.20;;;1.80;;
52126;SDS011;38120;53.176;6.614;2022-08-21T15:31:07;4.75;;;2.10;;
52126;SDS011;38120;53.176;6.614;2022-08-21T15:35:58;6.07;;;2.30;;
52126;SDS011;38120;53.176;6.614;2022-08-21T15:38:24;8.63;;;2.58;;
52126;SDS011;38120;53.176;6.614;2022-08-21T15:40:50;7.05;;;2.35;;
52126;SDS011;38120;53.176;6.614;2022-08-21T15:43:25;7.93;;;2.63;;
52126;SDS011;38120;53.176;6.614;2022-08-21T15:45:52;13.23;;;3.00;;
52126;SDS011;38120;53.176;6.614;2022-08-21T15:48:19;12.57;;;3.00;;
52126;SDS011;38120;53.176;6.614;2022-08-21T15:50:45;8.05;;;2.47;;
52126;SDS011;38120;53.176;6.614;2022-08-21T15:53:11;9.38;;;3.05;;
52126;SDS011;38120;53.176;6.614;2022-08-21T15:55:37;8.32;;;2.35;;
52126;SDS011;38120;53.176;6.614;2022-08-21T15:58:04;6.43;;;2.38;;
52126;SDS011;38120;53.176;6.614;2022-08-21T16:02:58;8.23;;;2.72;;
52126;SDS011;38120;53.176;6.614;2022-08-21T16:05:24;10.82;;;2.70;;
52126;SDS011;38120;53.176;6.614;2022-08-21T16:10:18;9.13;;;2.38;;
52126;SDS011;38120;53.176;6.614;2022-08-21T16:12:50;7.25;;;2.08;;
52126;SDS011;38120;53.176;6.614;2022-08-21T16:15:28;4.68;;;2.10;;
52126;SDS011;38120;53.176;6.614;2022-08-21T16:17:55;9.90;;;2.58;;
52126;SDS011;38120;53.176;6.614;2022-08-21T16:20:25;6.80;;;1.90;;
52126;SDS011;38120;53.176;6.614;2022-08-21T16:22:54;6.65;;;2.22;;
52126;SDS011;38120;53.176;6.614;2022-08-21T16:25:21;7.60;;;2.20;;
52126;SDS011;38120;53.176;6.614;2022-08-21T16:27:52;9.73;;;2.20;;
52126;SDS011;38120;53.176;6.614;2022-08-21T16:30:22;6.57;;;2.15;;
52126;SDS011;38120;53.176;6.614;2022-08-21T16:32:47;7.47;;;2.58;;
52126;SDS011;38120;53.176;6.614;2022-08-21T16:35:15;5.50;;;1.85;;
52126;SDS011;38120;53.176;6.614;2022-08-21T16:37:42;8.70;;;2.10;;
52126;SDS011;38120;53.176;6.614;2022-08-21T16:40:09;6.60;;;1.88;;
52126;SDS011;38120;53.176;6.614;2022-08-21T16:42:36;7.43;;;2.13;;
52126;SDS011;38120;53.176;6.614;2022-08-21T16:45:06;7.28;;;2.70;;
52126;SDS011;38120;53.176;6.614;2022-08-21T16:47:35;10.00;;;2.55;;
52126;SDS011;38120;53.176;6.614;2022-08-21T16:50:00;8.35;;;2.15;;
52126;SDS011;38120;53.176;6.614;2022-08-21T16:52:26;9.93;;;2.30;;
52126;SDS011;38120;53.176;6.614;2022-08-21T16:54:52;6.47;;;2.35;;
52126;SDS011;38120;53.176;6.614;2022-08-21T16:57:17;10.98;;;2.40;;
52126;SDS011;38120;53.176;6.614;2022-08-21T16:59:43;7.00;;;2.25;;
52126;SDS011;38120;53.176;6.614;2022-08-21T17:04:47;8.65;;;2.42;;
52126;SDS011;38120;53.176;6.614;2022-08-21T17:07:13;7.57;;;2.25;;
52126;SDS011;38120;53.176;6.614;2022-08-21T17:09:38;8.10;;;2.33;;
52126;SDS011;38120;53.176;6.614;2022-08-21T17:12:04;7.82;;;2.58;;
52126;SDS011;38120;53.176;6.614;2022-08-21T17:14:31;9.63;;;2.55;;
52126;SDS011;38120;53.176;6.614;2022-08-21T17:16:59;10.20;;;2.25;;